sensor_id;sensor_type;location;lat;lon;timestamp;temperature;humidity
7496;DHT22;3789;47.064;15.482;2022-11-20T00:00:12;-3.90;99.90
7496;DHT22;3789;47.064;15.482;2022-11-20T00:02:49;-3.90;99.90
7496;DHT22;3789;47.064;15.482;2022-11-20T00:05:17;-3.80;99.90
7496;DHT22;3789;47.064;15.482;2022-11-20T00:07:46;-3.70;99.90
7496;DHT22;3789;47.064;15.482;2022-11-20T00:10:17;-3.50;99.90
7496;DHT22;3789;47.064;15.482;2022-11-20T00:12:46;-3.50;99.90
7496;DHT22;3789;47.064;15.482;2022-11-20T00:15:22;-3.30;99.90
7496;DHT22;3789;47.064;15.482;2022-11-20T00:17:54;-3.20;99.90
7496;DHT22;3789;47.064;15.482;2022-11-20T00:20:23;-2.70;99.90
7496;DHT22;3789;47.064;15.482;2022-11-20T00:22:54;-2.10;99.90
7496;DHT22;3789;47.064;15.482;2022-11-20T00:25:24;-1.70;99.90
7496;DHT22;3789;47.064;15.482;2022-11-20T00:27:55;-1.30;99.90
7496;DHT22;3789;47.064;15.482;2022-11-20T00:30:23;-1.00;99.90
7496;DHT22;3789;47.064;15.482;2022-11-20T00:32:52;-0.70;99.90
7496;DHT22;3789;47.064;15.482;2022-11-20T00:35:21;-0.40;99.90
7496;DHT22;3789;47.064;15.482;2022-11-20T00:37:50;-0.20;99.90
7496;DHT22;3789;47.064;15.482;2022-11-20T00:40:29;0.00;99.90
7496;DHT22;3789;47.064;15.482;2022-11-20T00:43:03;0.20;99.90
7496;DHT22;3789;47.064;15.482;2022-11-20T00:45:33;0.40;99.90
7496;DHT22;3789;47.064;15.482;2022-11-20T00:48:02;0.50;99.90
7496;DHT22;3789;47.064;15.482;2022-11-20T00:50:33;0.50;99.90
7496;DHT22;3789;47.064;15.482;2022-11-20T00:53:01;0.60;99.90
7496;DHT22;3789;47.064;15.482;2022-11-20T00:55:30;0.60;99.90
7496;DHT22;3789;47.064;15.482;2022-11-20T00:57:58;0.70;99.90
7496;DHT22;3789;47.064;15.482;2022-11-20T01:00:32;0.80;99.90
7496;DHT22;3789;47.064;15.482;2022-11-20T01:03:10;0.80;99.90
7496;DHT22;3789;47.064;15.482;2022-11-20T01:08:49;1.10;99.90
7496;DHT22;3789;47.064;15.482;2022-11-20T01:11:23;1.20;99.90
7496;DHT22;3789;47.064;15.482;2022-11-20T01:13:52;1.20;99.90
7496;DHT22;3789;47.064;15.482;2022-11-20T01:16:32;1.20;99.90
7496;DHT22;3789;47.064;15.482;2022-11-20T01:19:02;1.20;99.90
7496;DHT22;3789;47.064;15.482;2022-11-20T01:21:38;1.20;99.90
7496;DHT22;3789;47.064;15.482;2022-11-20T01:24:13;1.30;99.90
7496;DHT22;3789;47.064;15.482;2022-11-20T01:26:50;1.30;99.90
7496;DHT22;3789;47.064;15.482;2022-11-20T01:29:27;1.30;99.90
7496;DHT22;3789;47.064;15.482;2022-11-20T01:31:55;1.30;99.90
7496;DHT22;3789;47.064;15.482;2022-11-20T01:34:23;1.20;99.90
7496;DHT22;3789;47.064;15.482;2022-11-20T01:36:53;1.30;99.90
7496;DHT22;3789;47.064;15.482;2022-11-20T01:39:26;1.40;99.90
7496;DHT22;3789;47.064;15.482;2022-11-20T01:42:15;1.30;99.90
7496;DHT22;3789;47.064;15.482;2022-11-20T01:48:19;1.40;99.90
7496;DHT22;3789;47.064;15.482;2022-11-20T01:50:54;1.40;99.90
7496;DHT22;3789;47.064;15.482;2022-11-20T01:53:31;1.50;99.90
7496;DHT22;3789;47.064;15.482;2022-11-20T01:56:03;1.60;99.90
7496;DHT22;3789;47.064;15.482;2022-11-20T01:58:36;1.60;99.90
7496;DHT22;3789;47.064;15.482;2022-11-20T02:01:29;1.60;99.90
7496;DHT22;3789;47.064;15.482;2022-11-20T02:04:02;1.60;99.90
7496;DHT22;3789;47.064;15.482;2022-11-20T02:06:59;1.60;99.90
7496;DHT22;3789;47.064;15.482;2022-11-20T02:09:28;1.40;99.90
7496;DHT22;3789;47.064;15.482;2022-11-20T02:12:02;1.40;99.90
7496;DHT22;3789;47.064;15.482;2022-11-20T02:15:05;1.40;99.90
7496;DHT22;3789;47.064;15.482;2022-11-20T02:17:32;1.40;99.90
7496;DHT22;3789;47.064;15.482;2022-11-20T02:20:00;1.40;99.90
7496;DHT22;3789;47.064;15.482;2022-11-20T02:25:48;1.50;99.90
7496;DHT22;3789;47.064;15.482;2022-11-20T02:28:19;1.50;99.90
7496;DHT22;3789;47.064;15.482;2022-11-20T02:30:49;1.50;99.90
7496;DHT22;3789;47.064;15.482;2022-11-20T02:33:19;1.50;99.90
7496;DHT22;3789;47.064;15.482;2022-11-20T02:35:50;1.50;99.90
7496;DHT22;3789;47.064;15.482;2022-11-20T02:38:18;1.50;99.90
7496;DHT22;3789;47.064;15.482;2022-11-20T02:40:46;1.50;99.90
7496;DHT22;3789;47.064;15.482;2022-11-20T02:43:23;1.60;99.90
7496;DHT22;3789;47.064;15.482;2022-11-20T02:45:51;1.70;99.90
7496;DHT22;3789;47.064;15.482;2022-11-20T02:48:27;1.70;99.90
7496;DHT22;3789;47.064;15.482;2022-11-20T02:51:01;1.80;99.90
7496;DHT22;3789;47.064;15.482;2022-11-20T02:53:31;1.80;99.90
7496;DHT22;3789;47.064;15.482;2022-11-20T02:56:08;1.90;99.90
7496;DHT22;3789;47.064;15.482;2022-11-20T02:58:36;2.00;99.90
7496;DHT22;3789;47.064;15.482;2022-11-20T03:01:03;2.00;99.90
7496;DHT22;3789;47.064;15.482;2022-11-20T03:03:33;2.10;99.90
7496;DHT22;3789;47.064;15.482;2022-11-20T03:06:02;2.10;99.90
7496;DHT22;3789;47.064;15.482;2022-11-20T03:08:34;2.20;99.90
7496;DHT22;3789;47.064;15.482;2022-11-20T03:11:11;2.10;99.90
7496;DHT22;3789;47.064;15.482;2022-11-20T03:13:42;2.00;99.90
7496;DHT22;3789;47.064;15.482;2022-11-20T03:16:20;2.00;99.90
7496;DHT22;3789;47.064;15.482;2022-11-20T03:18:52;2.00;99.90
7496;DHT22;3789;47.064;15.482;2022-11-20T03:21:21;2.10;99.90
7496;DHT22;3789;47.064;15.482;2022-11-20T03:23:53;2.10;99.90
7496;DHT22;3789;47.064;15.482;2022-11-20T03:26:25;2.10;99.90
7496;DHT22;3789;47.064;15.482;2022-11-20T03:29:01;2.20;99.90
7496;DHT22;3789;47.064;15.482;2022-11-20T03:31:34;2.20;99.90
7496;DHT22;3789;47.064;15.482;2022-11-20T03:34:12;2.20;99.90
7496;DHT22;3789;47.064;15.482;2022-11-20T03:36:43;2.30;99.90
7496;DHT22;3789;47.064;15.482;2022-11-20T03:39:11;2.30;99.90
7496;DHT22;3789;47.064;15.482;2022-11-20T03:41:50;2.30;99.90
7496;DHT22;3789;47.064;15.482;2022-11-20T03:44:27;2.30;99.90
7496;DHT22;3789;47.064;15.482;2022-11-20T03:46:55;2.30;99.90
7496;DHT22;3789;47.064;15.482;2022-11-20T03:49:26;2.40;99.90
7496;DHT22;3789;47.064;15.482;2022-11-20T03:51:54;2.40;99.90
7496;DHT22;3789;47.064;15.482;2022-11-20T03:54:24;2.40;99.90
7496;DHT22;3789;47.064;15.482;2022-11-20T03:56:53;2.50;99.90
7496;DHT22;3789;47.064;15.482;2022-11-20T03:59:23;2.50;99.90
7496;DHT22;3789;47.064;15.482;2022-11-20T04:01:54;2.50;99.90
7496;DHT22;3789;47.064;15.482;2022-11-20T04:04:21;2.50;99.90
7496;DHT22;3789;47.064;15.482;2022-11-20T04:07:04;2.30;99.90
7496;DHT22;3789;47.064;15.482;2022-11-20T04:09:34;0.50;99.90
7496;DHT22;3789;47.064;15.482;2022-11-20T04:12:04;-1.10;99.90
7496;DHT22;3789;47.064;15.482;2022-11-20T04:14:47;-2.30;99.90
7496;DHT22;3789;47.064;15.482;2022-11-20T04:17:23;-3.10;99.90
7496;DHT22;3789;47.064;15.482;2022-11-20T04:19:52;-3.70;99.90
7496;DHT22;3789;47.064;15.482;2022-11-20T04:22:19;-4.00;99.90
7496;DHT22;3789;47.064;15.482;2022-11-20T04:24:49;-4.30;99.90
7496;DHT22;3789;47.064;15.482;2022-11-20T04:27:21;-4.40;99.90
7496;DHT22;3789;47.064;15.482;2022-11-20T04:29:51;-4.50;99.90
7496;DHT22;3789;47.064;15.482;2022-11-20T04:32:28;-4.60;99.90
7496;DHT22;3789;47.064;15.482;2022-11-20T04:35:00;-4.70;99.90
7496;DHT22;3789;47.064;15.482;2022-11-20T04:37:34;-4.60;99.90
7496;DHT22;3789;47.064;15.482;2022-11-20T04:40:12;-4.70;99.90
7496;DHT22;3789;47.064;15.482;2022-11-20T04:42:40;-4.90;99.90
7496;DHT22;3789;47.064;15.482;2022-11-20T04:45:07;-5.00;99.90
7496;DHT22;3789;47.064;15.482;2022-11-20T04:47:37;-5.00;99.90
7496;DHT22;3789;47.064;15.482;2022-11-20T04:50:06;-5.10;99.90
7496;DHT22;3789;47.064;15.482;2022-11-20T04:52:39;-5.10;99.90
7496;DHT22;3789;47.064;15.482;2022-11-20T04:55:11;-5.20;99.90
7496;DHT22;3789;47.064;15.482;2022-11-20T04:57:40;-5.10;99.90
7496;DHT22;3789;47.064;15.482;2022-11-20T05:00:09;-4.00;99.90
7496;DHT22;3789;47.064;15.482;2022-11-20T05:02:38;-2.30;99.90
7496;DHT22;3789;47.064;15.482;2022-11-20T05:05:09;-3.10;99.90
7496;DHT22;3789;47.064;15.482;2022-11-20T05:07:39;-4.00;99.90
7496;DHT22;3789;47.064;15.482;2022-11-20T05:10:08;-4.30;99.90
7496;DHT22;3789;47.064;15.482;2022-11-20T05:12:37;-4.50;99.90
7496;DHT22;3789;47.064;15.482;2022-11-20T05:15:07;-4.70;99.90
7496;DHT22;3789;47.064;15.482;2022-11-20T05:17:37;-4.70;99.90
7496;DHT22;3789;47.064;15.482;2022-11-20T05:20:05;-4.90;99.90
7496;DHT22;3789;47.064;15.482;2022-11-20T05:22:37;-5.00;99.90
7496;DHT22;3789;47.064;15.482;2022-11-20T05:25:13;-5.10;99.90
7496;DHT22;3789;47.064;15.482;2022-11-20T05:27:41;-5.10;99.90
7496;DHT22;3789;47.064;15.482;2022-11-20T05:30:13;-5.20;99.90
7496;DHT22;3789;47.064;15.482;2022-11-20T05:32:41;-5.20;99.90
7496;DHT22;3789;47.064;15.482;2022-11-20T05:35:11;-5.20;99.90
7496;DHT22;3789;47.064;15.482;2022-11-20T05:37:42;-5.20;99.90
7496;DHT22;3789;47.064;15.482;2022-11-20T05:40:12;-5.30;99.90
7496;DHT22;3789;47.064;15.482;2022-11-20T05:42:44;-5.50;99.90
7496;DHT22;3789;47.064;15.482;2022-11-20T05:45:15;-5.60;99.90
7496;DHT22;3789;47.064;15.482;2022-11-20T05:47:51;-5.60;99.90
7496;DHT22;3789;47.064;15.482;2022-11-20T05:50:21;-5.60;99.90
7496;DHT22;3789;47.064;15.482;2022-11-20T05:52:50;-5.60;99.90
7496;DHT22;3789;47.064;15.482;2022-11-20T05:55:23;-5.50;99.90
7496;DHT22;3789;47.064;15.482;2022-11-20T05:57:53;-4.20;99.90
7496;DHT22;3789;47.064;15.482;2022-11-20T06:00:24;-3.30;99.90
7496;DHT22;3789;47.064;15.482;2022-11-20T06:03:00;-2.70;99.90
7496;DHT22;3789;47.064;15.482;2022-11-20T06:05:28;-2.30;99.90
7496;DHT22;3789;47.064;15.482;2022-11-20T06:08:14;-1.80;99.90
7496;DHT22;3789;47.064;15.482;2022-11-20T06:10:44;-1.50;99.90
7496;DHT22;3789;47.064;15.482;2022-11-20T06:13:12;-1.20;99.90
7496;DHT22;3789;47.064;15.482;2022-11-20T06:15:53;-0.90;99.90
7496;DHT22;3789;47.064;15.482;2022-11-20T06:18:26;-0.70;99.90
7496;DHT22;3789;47.064;15.482;2022-11-20T06:21:14;-0.50;99.90
7496;DHT22;3789;47.064;15.482;2022-11-20T06:23:43;-0.20;99.90
7496;DHT22;3789;47.064;15.482;2022-11-20T06:26:18;0.00;99.90
7496;DHT22;3789;47.064;15.482;2022-11-20T06:28:46;0.20;99.90
7496;DHT22;3789;47.064;15.482;2022-11-20T06:31:20;0.30;99.90
7496;DHT22;3789;47.064;15.482;2022-11-20T06:33:47;0.50;99.90
7496;DHT22;3789;47.064;15.482;2022-11-20T06:36:17;0.60;99.90
7496;DHT22;3789;47.064;15.482;2022-11-20T06:38:47;0.60;99.90
7496;DHT22;3789;47.064;15.482;2022-11-20T06:41:22;0.80;99.90
7496;DHT22;3789;47.064;15.482;2022-11-20T06:43:59;0.90;99.90
7496;DHT22;3789;47.064;15.482;2022-11-20T06:46:33;1.00;99.90
7496;DHT22;3789;47.064;15.482;2022-11-20T06:49:04;1.20;99.90
7496;DHT22;3789;47.064;15.482;2022-11-20T06:51:34;1.20;99.90
7496;DHT22;3789;47.064;15.482;2022-11-20T06:54:05;1.20;99.90
7496;DHT22;3789;47.064;15.482;2022-11-20T06:56:32;1.30;99.90
7496;DHT22;3789;47.064;15.482;2022-11-20T06:59:05;1.40;99.90
7496;DHT22;3789;47.064;15.482;2022-11-20T07:01:37;1.50;99.90
7496;DHT22;3789;47.064;15.482;2022-11-20T07:04:08;1.60;99.90
7496;DHT22;3789;47.064;15.482;2022-11-20T07:06:36;1.60;99.90
7496;DHT22;3789;47.064;15.482;2022-11-20T07:09:07;1.70;99.90
7496;DHT22;3789;47.064;15.482;2022-11-20T07:11:41;1.70;99.90
7496;DHT22;3789;47.064;15.482;2022-11-20T07:14:09;1.70;99.90
7496;DHT22;3789;47.064;15.482;2022-11-20T07:16:47;1.60;99.90
7496;DHT22;3789;47.064;15.482;2022-11-20T07:19:15;1.60;99.90
7496;DHT22;3789;47.064;15.482;2022-11-20T07:21:47;1.60;99.90
7496;DHT22;3789;47.064;15.482;2022-11-20T07:24:16;1.80;99.90
7496;DHT22;3789;47.064;15.482;2022-11-20T07:26:49;1.90;99.90
7496;DHT22;3789;47.064;15.482;2022-11-20T07:29:25;1.90;99.90
7496;DHT22;3789;47.064;15.482;2022-11-20T07:31:54;2.00;99.90
7496;DHT22;3789;47.064;15.482;2022-11-20T07:34:23;2.00;99.90
7496;DHT22;3789;47.064;15.482;2022-11-20T07:36:52;2.10;99.90
7496;DHT22;3789;47.064;15.482;2022-11-20T07:39:22;2.10;99.90
7496;DHT22;3789;47.064;15.482;2022-11-20T07:41:53;2.20;99.90
7496;DHT22;3789;47.064;15.482;2022-11-20T07:44:24;2.10;99.90
7496;DHT22;3789;47.064;15.482;2022-11-20T07:46:51;2.20;99.90
7496;DHT22;3789;47.064;15.482;2022-11-20T07:49:22;2.30;99.90
7496;DHT22;3789;47.064;15.482;2022-11-20T07:51:57;2.30;99.90
7496;DHT22;3789;47.064;15.482;2022-11-20T07:54:32;2.40;99.90
7496;DHT22;3789;47.064;15.482;2022-11-20T07:57:10;2.60;99.90
7496;DHT22;3789;47.064;15.482;2022-11-20T07:59:39;2.60;99.90
7496;DHT22;3789;47.064;15.482;2022-11-20T08:02:12;2.70;99.90
7496;DHT22;3789;47.064;15.482;2022-11-20T08:04:41;2.70;99.90
7496;DHT22;3789;47.064;15.482;2022-11-20T08:07:10;2.80;99.90
7496;DHT22;3789;47.064;15.482;2022-11-20T08:09:39;2.80;99.90
7496;DHT22;3789;47.064;15.482;2022-11-20T08:12:19;2.90;99.90
7496;DHT22;3789;47.064;15.482;2022-11-20T08:15:08;2.90;99.90
7496;DHT22;3789;47.064;15.482;2022-11-20T08:17:41;3.00;99.90
7496;DHT22;3789;47.064;15.482;2022-11-20T08:20:22;3.00;99.90
7496;DHT22;3789;47.064;15.482;2022-11-20T08:22:59;3.00;99.90
7496;DHT22;3789;47.064;15.482;2022-11-20T08:25:29;3.00;99.90
7496;DHT22;3789;47.064;15.482;2022-11-20T08:27:59;3.00;99.90
7496;DHT22;3789;47.064;15.482;2022-11-20T08:30:33;3.10;99.90
7496;DHT22;3789;47.064;15.482;2022-11-20T08:33:05;3.20;99.90
7496;DHT22;3789;47.064;15.482;2022-11-20T08:35:35;3.20;99.90
7496;DHT22;3789;47.064;15.482;2022-11-20T08:38:05;3.20;99.90
7496;DHT22;3789;47.064;15.482;2022-11-20T08:40:35;3.30;99.90
7496;DHT22;3789;47.064;15.482;2022-11-20T08:43:04;3.30;99.90
7496;DHT22;3789;47.064;15.482;2022-11-20T08:45:34;3.40;99.90
7496;DHT22;3789;47.064;15.482;2022-11-20T08:48:03;3.40;99.90
7496;DHT22;3789;47.064;15.482;2022-11-20T08:50:31;3.40;99.90
7496;DHT22;3789;47.064;15.482;2022-11-20T08:53:06;3.50;99.90
7496;DHT22;3789;47.064;15.482;2022-11-20T08:55:36;3.50;99.90
7496;DHT22;3789;47.064;15.482;2022-11-20T08:58:11;3.50;99.90
7496;DHT22;3789;47.064;15.482;2022-11-20T09:00:43;3.50;99.90
7496;DHT22;3789;47.064;15.482;2022-11-20T09:03:11;3.50;99.90
7496;DHT22;3789;47.064;15.482;2022-11-20T09:05:39;3.50;99.90
7496;DHT22;3789;47.064;15.482;2022-11-20T09:08:10;3.50;99.90
7496;DHT22;3789;47.064;15.482;2022-11-20T09:10:51;3.60;99.90
7496;DHT22;3789;47.064;15.482;2022-11-20T09:13:24;3.60;99.90
7496;DHT22;3789;47.064;15.482;2022-11-20T09:15:59;3.60;99.90
7496;DHT22;3789;47.064;15.482;2022-11-20T09:18:29;3.70;99.90
7496;DHT22;3789;47.064;15.482;2022-11-20T09:21:12;3.80;99.90
7496;DHT22;3789;47.064;15.482;2022-11-20T09:23:45;3.80;99.90
7496;DHT22;3789;47.064;15.482;2022-11-20T09:26:20;3.70;99.90
7496;DHT22;3789;47.064;15.482;2022-11-20T09:28:51;3.70;99.90
7496;DHT22;3789;47.064;15.482;2022-11-20T09:31:25;3.60;99.90
7496;DHT22;3789;47.064;15.482;2022-11-20T09:33:58;3.70;99.90
7496;DHT22;3789;47.064;15.482;2022-11-20T09:36:36;3.80;99.90
7496;DHT22;3789;47.064;15.482;2022-11-20T09:39:07;3.90;99.90
7496;DHT22;3789;47.064;15.482;2022-11-20T09:44:53;4.00;99.90
7496;DHT22;3789;47.064;15.482;2022-11-20T09:50:34;3.90;99.90
7496;DHT22;3789;47.064;15.482;2022-11-20T09:56:19;4.10;99.90
7496;DHT22;3789;47.064;15.482;2022-11-20T09:58:59;4.00;99.90
7496;DHT22;3789;47.064;15.482;2022-11-20T10:01:35;3.90;99.90
7496;DHT22;3789;47.064;15.482;2022-11-20T10:04:19;4.00;99.90
7496;DHT22;3789;47.064;15.482;2022-11-20T10:06:50;4.10;99.90
7496;DHT22;3789;47.064;15.482;2022-11-20T10:09:54;4.20;99.90
7496;DHT22;3789;47.064;15.482;2022-11-20T10:12:54;4.30;99.90
7496;DHT22;3789;47.064;15.482;2022-11-20T10:18:22;1.10;99.90
7496;DHT22;3789;47.064;15.482;2022-11-20T10:30:22;-1.80;99.90
7496;DHT22;3789;47.064;15.482;2022-11-20T10:33:08;-2.00;99.90
7496;DHT22;3789;47.064;15.482;2022-11-20T10:35:49;-2.00;99.90
7496;DHT22;3789;47.064;15.482;2022-11-20T10:38:31;-2.10;99.90
7496;DHT22;3789;47.064;15.482;2022-11-20T10:41:06;-2.00;99.90
7496;DHT22;3789;47.064;15.482;2022-11-20T10:44:26;-1.60;99.90
7496;DHT22;3789;47.064;15.482;2022-11-20T10:47:17;-1.20;99.90
7496;DHT22;3789;47.064;15.482;2022-11-20T10:50:00;-1.50;99.90
7496;DHT22;3789;47.064;15.482;2022-11-20T11:01:20;-1.30;99.90
7496;DHT22;3789;47.064;15.482;2022-11-20T11:03:56;-1.50;99.90
7496;DHT22;3789;47.064;15.482;2022-11-20T11:06:48;-1.80;99.90
7496;DHT22;3789;47.064;15.482;2022-11-20T11:09:34;-1.70;99.90
7496;DHT22;3789;47.064;15.482;2022-11-20T11:12:18;0.20;99.90
7496;DHT22;3789;47.064;15.482;2022-11-20T11:14:55;1.50;99.90
7496;DHT22;3789;47.064;15.482;2022-11-20T11:17:34;2.30;99.90
7496;DHT22;3789;47.064;15.482;2022-11-20T11:20:17;2.90;99.90
7496;DHT22;3789;47.064;15.482;2022-11-20T11:22:57;3.50;99.90
7496;DHT22;3789;47.064;15.482;2022-11-20T11:25:36;3.90;99.90
7496;DHT22;3789;47.064;15.482;2022-11-20T11:28:25;4.30;99.90
7496;DHT22;3789;47.064;15.482;2022-11-20T11:30:57;4.60;99.90
7496;DHT22;3789;47.064;15.482;2022-11-20T11:33:31;4.80;99.90
7496;DHT22;3789;47.064;15.482;2022-11-20T11:36:16;5.10;99.90
7496;DHT22;3789;47.064;15.482;2022-11-20T11:38:51;5.20;99.90
7496;DHT22;3789;47.064;15.482;2022-11-20T11:41:31;5.50;99.90
7496;DHT22;3789;47.064;15.482;2022-11-20T11:44:27;5.70;99.90
7496;DHT22;3789;47.064;15.482;2022-11-20T11:50:23;5.90;99.90
7496;DHT22;3789;47.064;15.482;2022-11-20T11:53:12;6.00;99.90
7496;DHT22;3789;47.064;15.482;2022-11-20T11:56:08;6.10;99.90
7496;DHT22;3789;47.064;15.482;2022-11-20T11:58:48;6.10;99.90
7496;DHT22;3789;47.064;15.482;2022-11-20T12:04:33;6.10;99.90
7496;DHT22;3789;47.064;15.482;2022-11-20T12:10:50;6.20;99.90
7496;DHT22;3789;47.064;15.482;2022-11-20T12:16:22;6.40;99.90
7496;DHT22;3789;47.064;15.482;2022-11-20T12:18:52;6.50;99.90
7496;DHT22;3789;47.064;15.482;2022-11-20T12:21:35;6.60;99.90
7496;DHT22;3789;47.064;15.482;2022-11-20T12:24:36;6.60;99.90
7496;DHT22;3789;47.064;15.482;2022-11-20T12:30:22;6.60;99.90
7496;DHT22;3789;47.064;15.482;2022-11-20T12:54:29;7.00;99.90
7496;DHT22;3789;47.064;15.482;2022-11-20T13:00:30;6.80;99.90
7496;DHT22;3789;47.064;15.482;2022-11-20T13:03:43;6.70;99.90
7496;DHT22;3789;47.064;15.482;2022-11-20T13:06:18;6.80;99.90
7496;DHT22;3789;47.064;15.482;2022-11-20T13:08:56;6.90;99.90
7496;DHT22;3789;47.064;15.482;2022-11-20T13:17:26;7.10;99.90
7496;DHT22;3789;47.064;15.482;2022-11-20T13:19:58;7.10;99.90
7496;DHT22;3789;47.064;15.482;2022-11-20T13:22:28;7.20;99.90
7496;DHT22;3789;47.064;15.482;2022-11-20T13:28:46;7.40;99.90
7496;DHT22;3789;47.064;15.482;2022-11-20T13:30:52;7.50;99.90
7496;DHT22;3789;47.064;15.482;2022-11-20T13:33:34;7.60;99.90
7496;DHT22;3789;47.064;15.482;2022-11-20T13:36:06;7.70;99.90
7496;DHT22;3789;47.064;15.482;2022-11-20T13:38:47;7.80;99.90
7496;DHT22;3789;47.064;15.482;2022-11-20T13:41:35;7.90;99.90
7496;DHT22;3789;47.064;15.482;2022-11-20T13:44:37;8.00;99.90
7496;DHT22;3789;47.064;15.482;2022-11-20T13:47:24;8.10;99.90
7496;DHT22;3789;47.064;15.482;2022-11-20T13:49:58;8.00;99.90
7496;DHT22;3789;47.064;15.482;2022-11-20T13:55:54;8.00;99.90
7496;DHT22;3789;47.064;15.482;2022-11-20T13:59:05;8.00;99.90
7496;DHT22;3789;47.064;15.482;2022-11-20T14:01:44;8.00;99.90
7496;DHT22;3789;47.064;15.482;2022-11-20T14:04:33;8.00;99.90
7496;DHT22;3789;47.064;15.482;2022-11-20T14:07:10;8.10;99.90
7496;DHT22;3789;47.064;15.482;2022-11-20T14:09:48;8.00;99.90
7496;DHT22;3789;47.064;15.482;2022-11-20T14:12:20;8.00;99.90
7496;DHT22;3789;47.064;15.482;2022-11-20T14:14:56;7.90;99.90
7496;DHT22;3789;47.064;15.482;2022-11-20T14:17:36;7.90;99.90
7496;DHT22;3789;47.064;15.482;2022-11-20T14:20:11;7.80;99.90
7496;DHT22;3789;47.064;15.482;2022-11-20T14:22:55;7.80;99.90
7496;DHT22;3789;47.064;15.482;2022-11-20T14:25:25;7.70;99.90
7496;DHT22;3789;47.064;15.482;2022-11-20T14:27:57;7.70;99.90
7496;DHT22;3789;47.064;15.482;2022-11-20T14:30:44;7.60;99.90
7496;DHT22;3789;47.064;15.482;2022-11-20T14:33:16;7.50;99.90
7496;DHT22;3789;47.064;15.482;2022-11-20T14:35:49;7.50;99.90
7496;DHT22;3789;47.064;15.482;2022-11-20T14:38:26;7.40;99.90
7496;DHT22;3789;47.064;15.482;2022-11-20T14:40:54;7.30;99.90
7496;DHT22;3789;47.064;15.482;2022-11-20T14:43:33;7.30;99.90
7496;DHT22;3789;47.064;15.482;2022-11-20T14:46:09;7.20;99.90
7496;DHT22;3789;47.064;15.482;2022-11-20T14:48:49;7.10;99.90
7496;DHT22;3789;47.064;15.482;2022-11-20T14:51:45;7.00;99.90
7496;DHT22;3789;47.064;15.482;2022-11-20T14:54:27;7.00;99.90
7496;DHT22;3789;47.064;15.482;2022-11-20T14:57:18;6.90;99.90
7496;DHT22;3789;47.064;15.482;2022-11-20T14:59:47;6.80;99.90
7496;DHT22;3789;47.064;15.482;2022-11-20T15:02:16;6.70;99.90
7496;DHT22;3789;47.064;15.482;2022-11-20T15:05:01;6.70;99.90
7496;DHT22;3789;47.064;15.482;2022-11-20T15:08:08;6.60;99.90
7496;DHT22;3789;47.064;15.482;2022-11-20T15:10:46;6.50;99.90
7496;DHT22;3789;47.064;15.482;2022-11-20T15:13:36;6.40;99.90
7496;DHT22;3789;47.064;15.482;2022-11-20T15:16:27;6.40;99.90
7496;DHT22;3789;47.064;15.482;2022-11-20T15:19:16;6.20;99.90
7496;DHT22;3789;47.064;15.482;2022-11-20T15:21:49;6.20;99.90
7496;DHT22;3789;47.064;15.482;2022-11-20T15:24:20;6.20;99.90
7496;DHT22;3789;47.064;15.482;2022-11-20T15:26:50;6.10;99.90
7496;DHT22;3789;47.064;15.482;2022-11-20T15:29:28;6.00;99.90
7496;DHT22;3789;47.064;15.482;2022-11-20T15:32:00;5.90;99.90
7496;DHT22;3789;47.064;15.482;2022-11-20T15:34:41;5.90;99.90
7496;DHT22;3789;47.064;15.482;2022-11-20T15:37:12;5.70;99.90
7496;DHT22;3789;47.064;15.482;2022-11-20T15:39:40;5.60;99.90
7496;DHT22;3789;47.064;15.482;2022-11-20T15:42:10;5.60;99.90
7496;DHT22;3789;47.064;15.482;2022-11-20T15:44:40;5.50;99.90
7496;DHT22;3789;47.064;15.482;2022-11-20T15:47:10;5.50;99.90
7496;DHT22;3789;47.064;15.482;2022-11-20T15:49:41;5.40;99.90
7496;DHT22;3789;47.064;15.482;2022-11-20T15:52:10;5.30;99.90
7496;DHT22;3789;47.064;15.482;2022-11-20T15:54:42;5.30;99.90
7496;DHT22;3789;47.064;15.482;2022-11-20T15:57:12;5.20;99.90
7496;DHT22;3789;47.064;15.482;2022-11-20T15:59:42;5.20;99.90
7496;DHT22;3789;47.064;15.482;2022-11-20T16:02:15;5.10;99.90
7496;DHT22;3789;47.064;15.482;2022-11-20T16:04:51;5.00;99.90
7496;DHT22;3789;47.064;15.482;2022-11-20T16:07:21;5.00;99.90
7496;DHT22;3789;47.064;15.482;2022-11-20T16:09:50;5.00;99.90
7496;DHT22;3789;47.064;15.482;2022-11-20T16:12:28;5.10;99.90
7496;DHT22;3789;47.064;15.482;2022-11-20T16:15:17;5.10;99.90
7496;DHT22;3789;47.064;15.482;2022-11-20T16:18:08;5.10;99.90
7496;DHT22;3789;47.064;15.482;2022-11-20T16:20:39;5.10;99.90
7496;DHT22;3789;47.064;15.482;2022-11-20T16:23:17;5.10;99.90
7496;DHT22;3789;47.064;15.482;2022-11-20T16:25:55;5.10;99.90
7496;DHT22;3789;47.064;15.482;2022-11-20T16:28:25;5.00;99.90
7496;DHT22;3789;47.064;15.482;2022-11-20T16:30:54;5.00;99.90
7496;DHT22;3789;47.064;15.482;2022-11-20T16:33:25;4.90;99.90
7496;DHT22;3789;47.064;15.482;2022-11-20T16:35:53;4.90;99.90
7496;DHT22;3789;47.064;15.482;2022-11-20T16:38:24;4.90;99.90
7496;DHT22;3789;47.064;15.482;2022-11-20T16:41:00;4.90;99.90
7496;DHT22;3789;47.064;15.482;2022-11-20T16:43:29;4.90;99.90
7496;DHT22;3789;47.064;15.482;2022-11-20T16:46:04;4.90;99.90
7496;DHT22;3789;47.064;15.482;2022-11-20T16:48:33;4.90;99.90
7496;DHT22;3789;47.064;15.482;2022-11-20T16:51:02;4.90;99.90
7496;DHT22;3789;47.064;15.482;2022-11-20T16:53:33;4.90;99.90
7496;DHT22;3789;47.064;15.482;2022-11-20T16:56:15;5.00;99.90
7496;DHT22;3789;47.064;15.482;2022-11-20T16:58:50;5.00;99.90
7496;DHT22;3789;47.064;15.482;2022-11-20T17:01:31;5.00;99.90
7496;DHT22;3789;47.064;15.482;2022-11-20T17:04:03;4.90;99.90
7496;DHT22;3789;47.064;15.482;2022-11-20T17:06:42;4.80;99.90
7496;DHT22;3789;47.064;15.482;2022-11-20T17:09:15;4.80;99.90
7496;DHT22;3789;47.064;15.482;2022-11-20T17:11:44;4.80;99.90
7496;DHT22;3789;47.064;15.482;2022-11-20T17:14:15;4.80;99.90
7496;DHT22;3789;47.064;15.482;2022-11-20T17:16:53;4.90;99.90
7496;DHT22;3789;47.064;15.482;2022-11-20T17:19:28;4.90;99.90
7496;DHT22;3789;47.064;15.482;2022-11-20T17:21:59;4.90;99.90
7496;DHT22;3789;47.064;15.482;2022-11-20T17:24:26;4.90;99.90
7496;DHT22;3789;47.064;15.482;2022-11-20T17:26:57;4.80;99.90
7496;DHT22;3789;47.064;15.482;2022-11-20T17:29:27;4.80;99.90
7496;DHT22;3789;47.064;15.482;2022-11-20T17:31:56;4.80;99.90
7496;DHT22;3789;47.064;15.482;2022-11-20T17:34:28;4.80;99.90
7496;DHT22;3789;47.064;15.482;2022-11-20T17:36:58;4.80;99.90
7496;DHT22;3789;47.064;15.482;2022-11-20T17:39:33;4.70;99.90
7496;DHT22;3789;47.064;15.482;2022-11-20T17:42:04;4.70;99.90
7496;DHT22;3789;47.064;15.482;2022-11-20T17:44:51;4.70;99.90
7496;DHT22;3789;47.064;15.482;2022-11-20T17:47:21;4.80;99.90
7496;DHT22;3789;47.064;15.482;2022-11-20T17:49:50;4.70;99.90
7496;DHT22;3789;47.064;15.482;2022-11-20T17:52:22;4.70;99.90
7496;DHT22;3789;47.064;15.482;2022-11-20T17:54:50;4.70;99.90
7496;DHT22;3789;47.064;15.482;2022-11-20T17:57:23;4.70;99.90
7496;DHT22;3789;47.064;15.482;2022-11-20T18:00:11;3.20;99.90
7496;DHT22;3789;47.064;15.482;2022-11-20T18:02:41;1.00;99.90
7496;DHT22;3789;47.064;15.482;2022-11-20T18:05:10;-0.30;99.90
7496;DHT22;3789;47.064;15.482;2022-11-20T18:07:45;-1.10;99.90
7496;DHT22;3789;47.064;15.482;2022-11-20T18:10:16;-1.70;99.90
7496;DHT22;3789;47.064;15.482;2022-11-20T18:12:48;-2.10;99.90
7496;DHT22;3789;47.064;15.482;2022-11-20T18:15:17;-2.30;99.90
7496;DHT22;3789;47.064;15.482;2022-11-20T18:17:47;-2.50;99.90